createdAt,value
2018-06-05T00:00:11.162Z,34.60
2018-06-05T00:02:39.722Z,33.20
2018-06-05T00:05:08.293Z,35.87
2018-06-05T00:07:36.821Z,34.07
2018-06-05T00:10:05.599Z,35.83
2018-06-05T00:12:34.224Z,33.40
2018-06-05T00:15:02.441Z,32.50
2018-06-05T00:17:30.931Z,32.70
2018-06-05T00:19:59.464Z,34.80
2018-06-05T00:22:28.058Z,34.37
2018-06-05T00:24:56.722Z,34.70
2018-06-05T00:27:25.094Z,35.33
2018-06-05T00:29:53.863Z,36.60
2018-06-05T00:32:22.709Z,31.33
2018-06-05T00:34:51.242Z,33.60
2018-06-05T00:37:19.834Z,33.47
2018-06-05T00:39:48.421Z,33.17
2018-06-05T00:42:17.033Z,33.23
2018-06-05T00:44:45.665Z,34.43
2018-06-05T00:47:14.211Z,31.23
2018-06-05T00:49:42.968Z,30.53
2018-06-05T00:52:11.521Z,28.63
2018-06-05T00:54:40.417Z,29.77
2018-06-05T00:57:08.954Z,27.10
2018-06-05T00:59:37.595Z,26.83
2018-06-05T01:02:06.127Z,29.47
2018-06-05T01:04:34.664Z,26.80
2018-06-05T01:07:03.501Z,27.47
2018-06-05T01:09:32.009Z,27.90
2018-06-05T01:12:00.486Z,25.63
2018-06-05T01:14:28.717Z,28.40
2018-06-05T01:16:57.292Z,22.87
2018-06-05T01:19:25.981Z,23.63
2018-06-05T01:21:54.658Z,27.07
2018-06-05T01:24:23.196Z,26.10
2018-06-05T01:26:51.780Z,23.40
2018-06-05T01:29:20.398Z,23.47
2018-06-05T01:31:48.938Z,24.33
2018-06-05T01:34:17.482Z,24.67
2018-06-05T01:36:46.617Z,23.97
2018-06-05T01:39:15.142Z,23.03
2018-06-05T01:41:43.596Z,24.27
2018-06-05T01:44:12.080Z,23.70
2018-06-05T01:46:40.661Z,24.93
2018-06-05T01:49:09.156Z,25.30
2018-06-05T01:51:37.716Z,23.17
2018-06-05T01:54:06.289Z,23.90
2018-06-05T01:56:34.816Z,21.90
2018-06-05T01:59:03.322Z,24.50
2018-06-05T02:01:32.585Z,24.60
2018-06-05T02:04:01.187Z,24.80
2018-06-05T02:06:29.782Z,24.43
2018-06-05T02:08:58.366Z,23.37
2018-06-05T02:11:26.872Z,24.03
2018-06-05T02:13:56.453Z,25.77
2018-06-05T02:16:25.007Z,24.60
2018-06-05T02:18:53.548Z,22.43
2018-06-05T02:21:22.118Z,25.80
2018-06-05T02:23:50.325Z,24.27
2018-06-05T02:26:19.117Z,24.17
2018-06-05T02:28:47.775Z,26.93
2018-06-05T02:31:16.265Z,26.37
2018-06-05T02:33:44.900Z,26.00
2018-06-05T02:36:13.362Z,26.37
2018-06-05T02:38:41.895Z,25.77
2018-06-05T02:41:10.382Z,25.50
2018-06-05T02:43:38.941Z,24.73
2018-06-05T02:46:07.464Z,25.47
2018-06-05T02:48:35.984Z,25.13
2018-06-05T02:51:04.496Z,24.37
2018-06-05T02:53:33.667Z,20.33
2018-06-05T02:56:02.173Z,26.67
2018-06-05T02:58:30.668Z,24.67
2018-06-05T03:00:59.198Z,24.40
2018-06-05T03:03:27.776Z,24.53
2018-06-05T03:05:56.328Z,23.83
2018-06-05T03:08:25.104Z,25.20
2018-06-05T03:10:53.601Z,21.57
2018-06-05T03:13:22.192Z,22.00
2018-06-05T03:15:50.644Z,24.67
2018-06-05T03:18:19.377Z,22.67
2018-06-05T03:20:47.874Z,22.60
2018-06-05T03:23:16.524Z,22.37
2018-06-05T03:25:45.049Z,20.13
2018-06-05T03:28:13.501Z,21.10
2018-06-05T03:30:42.308Z,21.07
2018-06-05T03:33:10.935Z,20.27
2018-06-05T03:35:39.378Z,21.33
2018-06-05T03:38:08.061Z,16.67
2018-06-05T03:40:36.510Z,18.60
2018-06-05T03:43:05.710Z,19.90
2018-06-05T03:45:34.649Z,21.80
2018-06-05T03:48:03.147Z,18.63
2018-06-05T03:50:31.739Z,19.07
2018-06-05T03:53:00.441Z,16.67
2018-06-05T03:55:29.019Z,20.00
2018-06-05T03:57:57.844Z,17.63
2018-06-05T04:00:26.327Z,19.60
2018-06-05T04:02:55.302Z,20.60
2018-06-05T04:05:23.896Z,20.83
2018-06-05T04:07:52.414Z,18.83
2018-06-05T04:10:20.948Z,20.67
2018-06-05T04:12:49.584Z,19.93
2018-06-05T04:15:18.247Z,19.13
2018-06-05T04:17:46.764Z,22.43
2018-06-05T04:20:15.397Z,21.03
2018-06-05T04:22:43.951Z,20.83
2018-06-05T04:25:12.294Z,20.77
2018-06-05T04:27:40.837Z,20.53
2018-06-05T04:30:09.358Z,20.63
2018-06-05T04:32:37.864Z,18.60
2018-06-05T04:35:06.504Z,19.07
2018-06-05T04:37:35.210Z,19.43
2018-06-05T04:40:03.729Z,18.10
2018-06-05T04:42:32.279Z,20.23
2018-06-05T04:45:00.865Z,18.87
2018-06-05T04:47:29.619Z,18.47
2018-06-05T04:49:58.283Z,19.17
2018-06-05T04:52:26.877Z,17.53
2018-06-05T04:54:55.626Z,20.07
2018-06-05T04:57:24.424Z,20.23
2018-06-05T04:59:53.224Z,20.40
2018-06-05T05:02:21.748Z,19.37
2018-06-05T05:04:50.238Z,16.97
2018-06-05T05:07:18.782Z,19.97
2018-06-05T05:09:47.663Z,20.93
2018-06-05T05:12:16.149Z,18.53
2018-06-05T05:14:44.847Z,19.77
2018-06-05T05:17:13.504Z,18.87
2018-06-05T05:19:42.499Z,20.03
2018-06-05T05:22:11.247Z,21.30
2018-06-05T05:24:39.711Z,21.80
2018-06-05T05:27:08.350Z,19.80
2018-06-05T05:29:36.829Z,21.87
2018-06-05T05:32:05.375Z,20.23
2018-06-05T05:34:34.797Z,22.07
2018-06-05T05:37:03.304Z,21.07
2018-06-05T05:39:31.897Z,21.00
2018-06-05T05:42:00.979Z,22.47
2018-06-05T05:44:29.793Z,22.97
2018-06-05T05:46:58.640Z,24.03
2018-06-05T05:49:27.392Z,24.13
2018-06-05T05:51:56.092Z,24.23
2018-06-05T05:54:24.725Z,24.60
2018-06-05T05:56:53.395Z,23.93
2018-06-05T05:59:22.249Z,24.90
2018-06-05T06:01:50.818Z,24.27
2018-06-05T06:04:19.533Z,23.87
2018-06-05T06:06:48.149Z,23.80
2018-06-05T06:09:16.728Z,23.57
2018-06-05T06:11:46.282Z,23.83
2018-06-05T06:14:14.873Z,25.50
2018-06-05T06:16:43.709Z,24.30
2018-06-05T06:19:12.485Z,24.60
2018-06-05T06:21:41.193Z,25.10
2018-06-05T06:24:09.913Z,26.10
2018-06-05T06:26:38.759Z,23.50
2018-06-05T06:29:07.238Z,21.73
2018-06-05T06:31:36.159Z,22.63
2018-06-05T06:34:04.880Z,25.33
2018-06-05T06:36:33.740Z,24.30
2018-06-05T06:39:03.840Z,23.85
2018-06-05T06:41:32.508Z,23.13
2018-06-05T06:44:01.085Z,22.33
2018-06-05T06:46:29.868Z,23.03
2018-06-05T06:49:00.062Z,23.97
2018-06-05T06:51:28.603Z,20.67
2018-06-05T06:53:57.149Z,19.93
2018-06-05T06:56:25.669Z,20.40
2018-06-05T06:58:54.254Z,19.97
2018-06-05T07:01:22.849Z,22.23
2018-06-05T07:03:51.566Z,20.53
2018-06-05T07:06:20.203Z,22.67
2018-06-05T07:08:48.908Z,23.03
2018-06-05T07:11:17.930Z,22.57
2018-06-05T07:13:46.488Z,20.63
2018-06-05T07:16:15.255Z,17.73
2018-06-05T07:18:43.832Z,20.07
2018-06-05T07:21:12.369Z,20.23
2018-06-05T07:23:40.878Z,19.47
2018-06-05T07:26:09.466Z,22.53
2018-06-05T07:28:37.982Z,20.67
2018-06-05T07:31:06.926Z,18.17
2018-06-05T07:33:35.452Z,20.53
2018-06-05T07:36:04.345Z,19.43
2018-06-05T07:38:32.894Z,18.93
2018-06-05T07:41:02.094Z,19.03
2018-06-05T07:43:30.668Z,18.83
2018-06-05T07:45:59.510Z,19.23
2018-06-05T07:48:28.770Z,19.07
2018-06-05T07:50:57.439Z,19.13
2018-06-05T07:53:26.848Z,18.70
2018-06-05T07:55:55.465Z,15.07
2018-06-05T07:58:24.104Z,16.53
2018-06-05T08:00:52.696Z,16.53
2018-06-05T08:03:21.511Z,16.43
2018-06-05T08:05:50.732Z,16.20
2018-06-05T08:08:19.324Z,16.93
2018-06-05T08:10:48.180Z,16.43
2018-06-05T08:13:17.457Z,17.27
2018-06-05T08:15:46.288Z,15.87
2018-06-05T08:18:14.779Z,16.30
2018-06-05T08:20:42.966Z,16.70
2018-06-05T08:23:11.508Z,16.67
2018-06-05T08:25:40.087Z,16.83
2018-06-05T08:28:08.637Z,15.00
2018-06-05T08:30:37.408Z,15.07
2018-06-05T08:33:06.195Z,14.73
2018-06-05T08:35:34.746Z,14.37
2018-06-05T08:38:03.293Z,15.27
2018-06-05T08:40:32.131Z,13.70
2018-06-05T08:43:00.658Z,15.30
2018-06-05T08:45:29.458Z,14.20
2018-06-05T08:47:58.288Z,12.80
2018-06-05T08:50:26.768Z,13.07
2018-06-05T08:52:55.170Z,12.37
2018-06-05T08:55:23.732Z,12.57
2018-06-05T08:57:52.265Z,13.20
2018-06-05T09:00:20.740Z,12.23
2018-06-05T09:02:49.389Z,12.70
2018-06-05T09:05:17.913Z,12.47
2018-06-05T09:07:46.482Z,11.90
2018-06-05T09:10:14.961Z,11.87
2018-06-05T09:12:43.591Z,11.27
2018-06-05T09:15:12.136Z,11.50
2018-06-05T09:17:40.765Z,11.80
2018-06-05T09:20:09.498Z,11.43
2018-06-05T09:22:38.504Z,11.53
2018-06-05T09:25:07.358Z,11.33
2018-06-05T09:27:36.349Z,12.10
2018-06-05T09:30:04.958Z,11.77
2018-06-05T09:32:33.757Z,11.03
2018-06-05T09:35:02.394Z,12.10
2018-06-05T09:37:31.146Z,13.87
2018-06-05T09:39:59.670Z,13.43
2018-06-05T09:42:28.258Z,13.23
2018-06-05T09:44:57.501Z,14.13
2018-06-05T09:47:26.294Z,13.83
2018-06-05T09:49:54.852Z,14.13
2018-06-05T09:52:24.263Z,12.97
2018-06-05T09:54:53.093Z,13.37
2018-06-05T09:57:21.937Z,12.70
2018-06-05T09:59:50.502Z,13.37
2018-06-05T10:02:19.054Z,13.07
2018-06-05T10:04:47.589Z,13.27
2018-06-05T10:07:16.137Z,14.13
2018-06-05T10:09:44.673Z,14.17
2018-06-05T10:12:13.273Z,13.70
2018-06-05T10:14:41.809Z,14.63
2018-06-05T10:17:10.630Z,14.20
2018-06-05T10:19:39.222Z,12.57
2018-06-05T10:22:07.732Z,14.03
2018-06-05T10:24:36.489Z,13.63
2018-06-05T10:27:05.247Z,13.40
2018-06-05T10:29:33.761Z,13.87
2018-06-05T10:32:02.337Z,13.53
2018-06-05T10:34:30.799Z,13.93
2018-06-05T10:36:59.390Z,13.33
2018-06-05T10:39:28.002Z,12.07
2018-06-05T10:41:56.739Z,14.10
2018-06-05T10:44:25.459Z,12.40
2018-06-05T10:46:54.159Z,11.03
2018-06-05T10:49:22.777Z,11.70
2018-06-05T10:51:51.564Z,11.70
2018-06-05T10:54:20.304Z,12.07
2018-06-05T10:56:49.082Z,12.20
2018-06-05T10:59:17.705Z,12.10
2018-06-05T11:01:46.488Z,12.33
2018-06-05T11:04:15.056Z,11.50
2018-06-05T11:06:43.643Z,13.23
2018-06-05T11:09:12.569Z,11.80
2018-06-05T11:11:41.484Z,11.13
2018-06-05T11:14:10.177Z,12.30
2018-06-05T11:16:38.918Z,12.17
2018-06-05T11:19:08.768Z,12.47
2018-06-05T11:21:37.780Z,12.43
2018-06-05T11:24:06.602Z,11.53
2018-06-05T11:26:35.239Z,11.67
2018-06-05T11:29:03.855Z,11.80
2018-06-05T11:31:32.415Z,10.83
2018-06-05T11:34:01.018Z,10.90
2018-06-05T11:36:29.720Z,11.77
2018-06-05T11:38:58.296Z,11.60
2018-06-05T11:41:26.945Z,10.37
2018-06-05T11:43:55.607Z,10.80
2018-06-05T11:46:24.381Z,11.07
2018-06-05T11:48:53.006Z,10.90
2018-06-05T11:51:22.076Z,11.20
2018-06-05T11:53:50.660Z,11.90
2018-06-05T11:56:19.179Z,11.97
2018-06-05T11:58:47.799Z,12.03
2018-06-05T12:01:16.375Z,12.13
2018-06-05T12:03:45.133Z,12.00
2018-06-05T12:06:13.788Z,11.23
2018-06-05T12:08:42.261Z,11.07
2018-06-05T12:11:10.827Z,10.50
2018-06-05T12:13:39.962Z,11.30
2018-06-05T12:16:08.532Z,10.70
2018-06-05T12:18:37.193Z,10.57
2018-06-05T12:21:05.957Z,10.90
2018-06-05T12:23:34.557Z,11.23
2018-06-05T12:26:03.327Z,11.47
2018-06-05T12:28:31.959Z,11.27
2018-06-05T12:31:00.611Z,11.23
2018-06-05T12:33:29.660Z,11.97
2018-06-05T12:35:58.357Z,11.80
2018-06-05T12:38:26.887Z,11.70
2018-06-05T12:40:56.084Z,10.97
2018-06-05T12:43:24.839Z,11.77
2018-06-05T12:45:53.455Z,12.17
2018-06-05T12:48:22.165Z,11.77
2018-06-05T12:50:50.918Z,10.60
2018-06-05T12:53:19.440Z,12.87
2018-06-05T12:55:48.036Z,11.37
2018-06-05T12:58:16.401Z,12.10
2018-06-05T13:00:44.583Z,11.63
2018-06-05T13:03:13.489Z,12.10
2018-06-05T13:05:42.215Z,11.97
2018-06-05T13:08:10.920Z,10.97
2018-06-05T13:10:39.474Z,11.27
2018-06-05T13:13:08.696Z,11.77
2018-06-05T13:15:37.296Z,11.10
2018-06-05T13:18:06.372Z,11.43
2018-06-05T13:20:34.869Z,10.67
2018-06-05T13:23:03.170Z,11.87
2018-06-05T13:25:31.682Z,13.13
2018-06-05T13:28:00.674Z,11.30
2018-06-05T13:30:29.421Z,10.60
2018-06-05T13:32:58.562Z,12.03
2018-06-05T13:35:27.376Z,12.27
2018-06-05T13:37:55.968Z,11.40
2018-06-05T13:40:24.326Z,11.10
2018-06-05T13:42:53.049Z,11.27
2018-06-05T13:45:21.878Z,10.83
2018-06-05T13:47:50.431Z,10.47
2018-06-05T13:50:19.122Z,11.40
2018-06-05T13:52:47.645Z,11.87
2018-06-05T13:55:16.429Z,11.83
2018-06-05T13:57:45.673Z,11.33
2018-06-05T14:00:14.224Z,10.90
2018-06-05T14:02:42.753Z,11.10
2018-06-05T14:05:11.280Z,10.23
2018-06-05T14:07:39.867Z,10.90
2018-06-05T14:10:08.457Z,10.90
2018-06-05T14:12:37.119Z,10.93
2018-06-05T14:15:06.158Z,10.00
2018-06-05T14:17:34.969Z,11.83
2018-06-05T14:20:03.752Z,11.20
2018-06-05T14:22:32.336Z,11.10
2018-06-05T14:25:00.882Z,11.00
2018-06-05T14:27:29.749Z,11.93
2018-06-05T14:29:58.278Z,11.37
2018-06-05T14:32:26.832Z,10.77
2018-06-05T14:34:55.469Z,10.90
2018-06-05T14:37:24.339Z,9.70
2018-06-05T14:39:52.955Z,10.60
2018-06-05T14:42:21.571Z,11.73
2018-06-05T14:44:50.322Z,12.17
2018-06-05T14:47:18.857Z,11.27
2018-06-05T14:49:47.587Z,12.27
2018-06-05T14:52:16.143Z,10.87
2018-06-05T14:54:44.994Z,11.33
2018-06-05T14:57:13.595Z,11.37
2018-06-05T14:59:42.276Z,10.63
2018-06-05T15:02:10.846Z,11.00
2018-06-05T15:04:40.071Z,10.40
2018-06-05T15:07:08.695Z,10.57
2018-06-05T15:09:37.271Z,11.50
2018-06-05T15:12:05.733Z,11.60
2018-06-05T15:14:34.427Z,12.83
2018-06-05T15:17:03.214Z,12.90
2018-06-05T15:19:31.743Z,12.90
2018-06-05T15:22:00.281Z,12.43
2018-06-05T15:24:28.881Z,12.53
2018-06-05T15:26:58.057Z,12.33
2018-06-05T15:29:26.907Z,13.07
2018-06-05T15:31:55.683Z,11.93
2018-06-05T15:34:24.240Z,12.57
2018-06-05T15:36:52.876Z,11.57
2018-06-05T15:39:21.625Z,12.30
2018-06-05T15:41:50.176Z,12.63
2018-06-05T15:44:19.104Z,12.20
2018-06-05T15:46:48.184Z,12.27
2018-06-05T15:49:17.139Z,12.63
2018-06-05T15:51:45.689Z,11.47
2018-06-05T15:54:14.554Z,12.53
2018-06-05T15:56:43.128Z,12.93
2018-06-05T15:59:11.826Z,11.93
2018-06-05T16:01:40.908Z,10.97
2018-06-05T16:04:09.947Z,11.27
2018-06-05T16:06:38.870Z,11.80
2018-06-05T16:09:08.965Z,11.53
2018-06-05T16:11:37.736Z,12.07
2018-06-05T16:14:06.290Z,11.70
2018-06-05T16:16:34.878Z,10.97
2018-06-05T16:19:03.563Z,12.23
2018-06-05T16:21:32.355Z,12.10
2018-06-05T16:24:01.331Z,11.83
2018-06-05T16:26:29.891Z,12.17
2018-06-05T16:28:58.608Z,11.10
2018-06-05T16:31:27.262Z,11.37
2018-06-05T16:33:55.985Z,11.07
2018-06-05T16:36:24.550Z,11.90
2018-06-05T16:38:53.055Z,12.13
2018-06-05T16:41:22.752Z,12.17
2018-06-05T16:43:51.663Z,11.83
2018-06-05T16:46:20.394Z,12.57
2018-06-05T16:48:49.340Z,12.33
2018-06-05T16:51:18.027Z,12.57
2018-06-05T16:53:46.556Z,12.47
2018-06-05T16:56:15.354Z,11.77
2018-06-05T16:58:44.355Z,11.87
2018-06-05T17:01:12.846Z,12.73
2018-06-05T17:03:41.417Z,12.37
2018-06-05T17:06:10.089Z,13.03
2018-06-05T17:08:38.728Z,12.00
2018-06-05T17:11:08.540Z,13.23
2018-06-05T17:13:37.428Z,12.83
2018-06-05T17:16:06.115Z,11.97
2018-06-05T17:18:35.030Z,11.40
2018-06-05T17:21:03.599Z,11.03
2018-06-05T17:23:32.085Z,11.47
2018-06-05T17:26:00.822Z,11.90
2018-06-05T17:28:29.517Z,12.30
2018-06-05T17:30:58.249Z,11.20
2018-06-05T17:33:27.054Z,12.33
2018-06-05T17:35:55.659Z,12.30
2018-06-05T17:38:24.243Z,11.90
2018-06-05T17:40:53.225Z,13.27
2018-06-05T17:43:21.818Z,11.83
2018-06-05T17:45:50.403Z,12.90
2018-06-05T17:48:19.001Z,12.77
2018-06-05T17:50:47.734Z,13.93
2018-06-05T17:53:17.231Z,12.70
2018-06-05T17:55:45.845Z,11.53
2018-06-05T17:58:15.381Z,12.17
2018-06-05T18:00:43.962Z,12.47
2018-06-05T18:03:12.676Z,12.50
2018-06-05T18:05:41.947Z,11.67
2018-06-05T18:08:10.582Z,12.13
2018-06-05T18:10:39.592Z,12.03
2018-06-05T18:13:10.061Z,12.87
2018-06-05T18:15:39.635Z,12.13
2018-06-05T18:18:08.173Z,12.03
2018-06-05T18:20:37.776Z,13.07
2018-06-05T18:23:06.410Z,12.73
2018-06-05T18:25:35.055Z,14.00
2018-06-05T18:28:04.057Z,13.17
2018-06-05T18:30:32.755Z,12.67
2018-06-05T18:33:02.047Z,13.07
2018-06-05T18:35:31.087Z,13.53
2018-06-05T18:37:59.922Z,12.77
2018-06-05T18:40:28.516Z,12.10
2018-06-05T18:42:57.101Z,13.70
2018-06-05T18:45:25.777Z,13.73
2018-06-05T18:47:54.546Z,14.47
2018-06-05T18:50:23.264Z,14.73
2018-06-05T18:52:51.856Z,15.17
2018-06-05T18:55:20.569Z,16.20
2018-06-05T18:57:49.330Z,14.50
2018-06-05T19:00:19.079Z,15.00
2018-06-05T19:02:47.699Z,15.73
2018-06-05T19:05:16.249Z,15.00
2018-06-05T19:07:44.879Z,14.27
2018-06-05T19:13:44.895Z,14.30
2018-06-05T19:16:13.895Z,14.13
2018-06-05T19:18:43.480Z,13.57
2018-06-05T19:21:12.150Z,12.87
2018-06-05T19:23:40.852Z,13.83
2018-06-05T19:26:09.676Z,12.67
2018-06-05T19:28:38.263Z,13.67
2018-06-05T19:31:06.819Z,14.17
2018-06-05T19:33:35.360Z,14.13
2018-06-05T19:36:03.993Z,15.33
2018-06-05T19:38:32.672Z,15.27
2018-06-05T19:41:01.215Z,14.70
2018-06-05T19:43:29.712Z,13.63
2018-06-05T19:45:58.260Z,15.00
2018-06-05T19:48:26.748Z,15.03
2018-06-05T19:50:55.437Z,14.80
2018-06-05T19:53:24.741Z,15.40
2018-06-05T19:55:53.788Z,14.20
2018-06-05T19:58:22.421Z,15.10
2018-06-05T20:00:52.056Z,12.87
2018-06-05T20:03:20.557Z,14.37
2018-06-05T20:05:49.120Z,14.70
2018-06-05T20:08:17.736Z,13.90
2018-06-05T20:10:46.471Z,14.00
2018-06-05T20:13:15.021Z,14.70
2018-06-05T20:15:43.591Z,14.53
2018-06-05T20:18:12.140Z,12.90
2018-06-05T20:20:40.824Z,13.17
2018-06-05T20:23:09.327Z,14.13
2018-06-05T20:25:38.259Z,13.40
2018-06-05T20:28:06.820Z,13.10
2018-06-05T20:30:35.369Z,12.50
2018-06-05T20:33:04.045Z,13.27
2018-06-05T20:35:32.586Z,13.50
2018-06-05T20:38:01.105Z,14.23
2018-06-05T20:40:29.753Z,13.77
2018-06-05T20:42:58.565Z,11.60
2018-06-05T20:45:27.127Z,13.57
2018-06-05T20:47:55.868Z,13.57
2018-06-05T20:50:24.556Z,12.17
2018-06-05T20:52:53.135Z,12.27
2018-06-05T20:55:22.155Z,11.77
2018-06-05T20:57:51.255Z,11.90
2018-06-05T21:00:20.107Z,11.50
2018-06-05T21:02:48.963Z,13.77
2018-06-05T21:05:17.636Z,10.60
2018-06-05T21:07:46.197Z,12.23
2018-06-05T21:10:14.759Z,12.80
2018-06-05T21:12:43.560Z,14.03
2018-06-05T21:15:12.334Z,13.00
2018-06-05T21:17:41.127Z,12.67
2018-06-05T21:20:09.953Z,12.90
2018-06-05T21:22:38.606Z,12.03
2018-06-05T21:25:07.357Z,12.57
2018-06-05T21:27:35.916Z,11.93
2018-06-05T21:30:04.542Z,12.70
2018-06-05T21:32:33.296Z,12.97
2018-06-05T21:35:01.864Z,11.93
2018-06-05T21:37:30.625Z,12.27
2018-06-05T21:39:59.226Z,12.50
2018-06-05T21:42:27.758Z,11.83
2018-06-05T21:44:56.456Z,12.17
2018-06-05T21:47:25.129Z,11.63
2018-06-05T21:49:53.737Z,12.37
2018-06-05T21:52:22.284Z,12.97
2018-06-05T21:54:51.425Z,12.33
2018-06-05T21:57:20.272Z,13.87
2018-06-05T21:59:48.815Z,12.60
2018-06-05T22:02:17.155Z,11.73
2018-06-05T22:04:45.924Z,12.87
2018-06-05T22:07:14.608Z,12.23
2018-06-05T22:09:43.202Z,11.70
2018-06-05T22:12:11.672Z,12.93
2018-06-05T22:14:40.388Z,13.30
2018-06-05T22:17:09.351Z,11.13
2018-06-05T22:19:38.012Z,13.53
2018-06-05T22:22:07.011Z,12.93
2018-06-05T22:24:35.589Z,13.20
2018-06-05T22:27:04.250Z,12.40
2018-06-05T22:29:32.799Z,12.97
2018-06-05T22:32:01.456Z,13.73
2018-06-05T22:34:30.026Z,14.63
2018-06-05T22:36:59.296Z,14.10
2018-06-05T22:39:27.792Z,14.33
2018-06-05T22:41:56.486Z,14.00
2018-06-05T22:44:25.354Z,12.90
2018-06-05T22:46:54.183Z,12.30
2018-06-05T22:49:22.888Z,13.70
2018-06-05T22:51:51.361Z,12.03
2018-06-05T22:54:20.018Z,13.97
2018-06-05T22:56:48.672Z,13.03
2018-06-05T22:59:17.167Z,11.90
2018-06-05T23:01:45.778Z,13.70
2018-06-05T23:04:14.637Z,14.23
2018-06-05T23:06:43.195Z,13.00
2018-06-05T23:09:11.870Z,13.03
2018-06-05T23:11:40.564Z,14.93
2018-06-05T23:14:09.439Z,14.37
2018-06-05T23:16:38.019Z,13.80
2018-06-05T23:19:07.746Z,13.03
2018-06-05T23:21:36.325Z,11.90
2018-06-05T23:24:04.869Z,13.20
2018-06-05T23:26:34.025Z,13.13
2018-06-05T23:29:02.533Z,14.50
2018-06-05T23:31:31.065Z,13.20
2018-06-05T23:33:59.543Z,12.63
2018-06-05T23:36:28.375Z,12.10
2018-06-05T23:38:57.131Z,12.00
2018-06-05T23:41:26.533Z,12.17
2018-06-05T23:43:55.151Z,11.53
2018-06-05T23:46:23.766Z,12.60
2018-06-05T23:48:53.087Z,11.33
2018-06-05T23:51:21.762Z,11.10
2018-06-05T23:53:50.320Z,12.17
2018-06-05T23:56:19.010Z,11.07
2018-06-05T23:58:47.577Z,10.67
